Time;durP1;ratioP1;P1;durP2;ratioP2;P2;SDS_P1;SDS_P2;PMS_P1;PMS_P2;Temp;Humidity;BMP_temperature;BMP_pressure;BME280_temperature;BME280_humidity;BME280_pressure;Samples;Min_cycle;Max_cycle;Signal;HPM_P1;HPM_P2
2022/11/27 00:02:19;;;;;;;19.70;10.73;;;;;;;0.86;100.00;98511.94;5044537;28;20049;-58
2022/11/27 00:04:45;;;;;;;22.45;11.35;;;;;;;0.94;100.00;98511.13;5028005;28;20041;-59
2022/11/27 00:07:12;;;;;;;20.98;10.63;;;;;;;0.82;100.00;98505.25;5042974;28;20045;-60
2022/11/27 00:09:38;;;;;;;21.52;11.02;;;;;;;0.75;100.00;98498.91;5048721;28;20048;-59
2022/11/27 00:12:05;;;;;;;18.63;10.27;;;;;;;0.73;100.00;98498.19;5039803;28;20128;-59
2022/11/27 00:14:32;;;;;;;20.75;10.73;;;;;;;0.59;100.00;98497.00;5047048;28;20045;-59
2022/11/27 00:16:59;;;;;;;19.60;9.93;;;;;;;0.48;100.00;98479.47;5038171;28;20069;-60
2022/11/27 00:19:26;;;;;;;23.30;10.82;;;;;;;0.38;100.00;98482.25;5047193;28;20124;-59
2022/11/27 00:21:53;;;;;;;21.65;11.25;;;;;;;0.37;100.00;98480.56;5044722;28;20065;-59
2022/11/27 00:24:19;;;;;;;23.20;10.68;;;;;;;0.34;100.00;98479.03;5027788;28;20048;-59
2022/11/27 00:26:46;;;;;;;27.92;11.15;;;;;;;0.28;100.00;98474.34;5043801;28;20404;-59
2022/11/27 00:29:12;;;;;;;19.83;10.52;;;;;;;0.27;100.00;98469.19;5027955;28;20077;-59
2022/11/27 00:31:38;;;;;;;19.65;10.63;;;;;;;0.27;100.00;98469.19;5041139;28;20128;-59
2022/11/27 00:34:07;;;;;;;21.58;11.27;;;;;;;0.32;100.00;98461.53;5043667;28;20045;-59
2022/11/27 00:36:34;;;;;;;25.92;13.20;;;;;;;0.32;100.00;98467.72;5032097;28;20080;-59
2022/11/27 00:39:02;;;;;;;31.00;12.95;;;;;;;0.32;100.00;98462.38;5029680;28;20132;-59
2022/11/27 00:41:30;;;;;;;28.77;12.90;;;;;;;0.34;100.00;98452.41;5046426;28;20041;-59
2022/11/27 00:43:57;;;;;;;32.83;14.90;;;;;;;0.36;100.00;98457.56;5044503;28;20045;-60
2022/11/27 00:46:26;;;;;;;27.95;12.40;;;;;;;0.42;100.00;98451.63;5027277;28;20118;-59
2022/11/27 00:48:55;;;;;;;27.63;13.13;;;;;;;0.37;100.00;98444.09;5042053;28;20055;-60
2022/11/27 00:51:23;;;;;;;24.92;12.77;;;;;;;0.35;100.00;98439.91;5045631;28;20424;-60
2022/11/27 00:53:51;;;;;;;26.35;14.63;;;;;;;0.33;100.00;98437.41;5032161;28;20037;-60
2022/11/27 00:56:21;;;;;;;26.65;13.63;;;;;;;0.33;100.00;98425.94;5044087;28;20049;-59
2022/11/27 00:58:48;;;;;;;25.20;12.90;;;;;;;0.33;100.00;98421.41;5032735;28;20054;-57
2022/11/27 01:01:20;;;;;;;22.92;11.88;;;;;;;0.35;100.00;98416.78;5026057;28;20041;-60
2022/11/27 01:03:48;;;;;;;22.15;11.52;;;;;;;0.37;100.00;98420.09;5038754;28;20033;-59
2022/11/27 01:06:16;;;;;;;22.63;12.15;;;;;;;0.33;100.00;98410.75;5040155;28;20061;-60
2022/11/27 01:08:43;;;;;;;21.55;11.93;;;;;;;0.36;100.00;98412.28;5041986;28;20041;-59
2022/11/27 01:11:19;;;;;;;20.67;12.40;;;;;;;0.37;100.00;98404.13;5028973;28;20046;-60
2022/11/27 01:13:46;;;;;;;17.67;9.50;;;;;;;0.34;100.00;98403.63;5038686;28;20037;-59
2022/11/27 01:16:21;;;;;;;20.15;11.25;;;;;;;0.27;100.00;98406.09;5045969;28;20041;-58
2022/11/27 01:18:49;;;;;;;20.55;9.77;;;;;;;0.23;100.00;98402.91;5037677;28;20551;-57
2022/11/27 01:21:19;;;;;;;16.98;9.68;;;;;;;0.30;100.00;98403.13;5043379;28;20052;-59
2022/11/27 01:23:46;;;;;;;21.23;9.98;;;;;;;0.28;100.00;98398.91;5028532;28;20091;-60
2022/11/27 01:26:14;;;;;;;18.85;9.60;;;;;;;0.15;100.00;98394.03;5042528;28;20048;-58
2022/11/27 01:28:41;;;;;;;15.95;10.13;;;;;;;0.00;100.00;98392.00;5044733;28;20686;-58
2022/11/27 01:31:15;;;;;;;16.08;8.88;;;;;;;0.05;100.00;98397.66;5045529;28;20475;-60
2022/11/27 01:33:42;;;;;;;17.00;9.20;;;;;;;0.10;100.00;98390.03;5039895;28;20048;-59
2022/11/27 01:36:11;;;;;;;16.42;8.88;;;;;;;0.09;100.00;98387.53;5040486;28;20041;-60
2022/11/27 01:38:37;;;;;;;16.33;9.07;;;;;;;0.08;100.00;98383.19;5026245;28;20076;-60
2022/11/27 01:41:13;;;;;;;17.60;9.38;;;;;;;0.05;100.00;98378.19;5025117;28;20052;-61
2022/11/27 01:43:41;;;;;;;16.98;8.75;;;;;;;0.03;100.00;98377.53;5044351;28;20199;-60
2022/11/27 01:46:26;;;;;;;17.15;8.95;;;;;;;0.02;100.00;98376.69;5045656;28;20041;-60
2022/11/27 01:48:58;;;;;;;15.30;7.97;;;;;;;0.00;100.00;98368.03;5034748;28;20067;-60
2022/11/27 01:51:25;;;;;;;18.77;9.10;;;;;;;-0.04;100.00;98367.50;5046869;28;20080;-61
2022/11/27 01:53:53;;;;;;;14.00;7.28;;;;;;;-0.38;100.00;98370.16;5028764;28;20103;-61
2022/11/27 01:56:21;;;;;;;12.43;7.00;;;;;;;-0.42;100.00;98375.78;5030142;28;20049;-60
2022/11/27 01:58:48;;;;;;;14.88;7.53;;;;;;;-0.61;100.00;98382.13;5029709;28;20120;-60
2022/11/27 02:01:15;;;;;;;15.50;7.78;;;;;;;-0.69;100.00;98380.25;5029589;28;20099;-61
2022/11/27 02:03:41;;;;;;;17.15;8.77;;;;;;;-0.81;100.00;98376.97;5029751;28;20042;-61
2022/11/27 02:06:11;;;;;;;18.73;7.88;;;;;;;-0.70;100.00;98375.06;5029707;28;20572;-60
2022/11/27 02:08:39;;;;;;;13.45;7.40;;;;;;;-0.84;100.00;98376.47;5034406;28;20081;-60
2022/11/27 02:11:19;;;;;;;13.32;7.60;;;;;;;-0.86;100.00;98373.09;5069015;28;20041;-60
2022/11/27 02:14:02;;;;;;;14.77;7.70;;;;;;;-0.96;100.00;98366.06;5044966;28;20033;-60
2022/11/27 02:17:01;;;;;;;15.35;8.90;;;;;;;-1.25;100.00;98369.78;5029648;28;20120;-60
2022/11/27 02:19:30;;;;;;;13.32;7.78;;;;;;;-1.18;100.00;98367.38;5040429;28;20044;-60
2022/11/27 02:22:04;;;;;;;16.13;7.22;;;;;;;-1.18;100.00;98376.16;5042392;28;20041;-60
2022/11/27 02:24:55;;;;;;;15.00;8.27;;;;;;;-1.14;100.00;98378.53;5028904;28;20052;-60
2022/11/27 02:27:59;;;;;;;18.30;7.63;;;;;;;-1.12;100.00;98372.06;5036256;28;20127;-60
2022/11/27 02:30:26;;;;;;;14.20;8.40;;;;;;;-0.98;100.00;98368.03;5045398;28;20527;-60
2022/11/27 02:32:57;;;;;;;16.25;7.80;;;;;;;-1.37;100.00;98360.38;5033013;28;20041;-60
2022/11/27 02:35:38;;;;;;;14.63;7.93;;;;;;;-1.46;100.00;98359.44;5031561;28;20044;-60
2022/11/27 02:38:14;;;;;;;12.10;6.40;;;;;;;-1.18;100.00;98362.06;5031119;28;20037;-57
2022/11/27 02:40:55;;;;;;;15.30;6.90;;;;;;;-1.22;100.00;98360.69;5033968;28;20045;-59
2022/11/27 02:43:33;;;;;;;16.02;7.28;;;;;;;-1.27;100.00;98357.63;5048447;28;20128;-59
2022/11/27 02:46:02;;;;;;;11.05;6.88;;;;;;;-1.08;100.00;98356.63;5030631;28;20068;-59
2022/11/27 02:48:34;;;;;;;13.93;7.93;;;;;;;-0.98;100.00;98359.22;5042103;28;20116;-58
2022/11/27 02:51:02;;;;;;;;;;;;;;;-0.81;100.00;98354.88;5029170;28;20073;-60
2022/11/27 02:53:37;;;;;;;12.80;6.13;;;;;;;-0.68;100.00;98359.78;5041806;28;19927;-60
2022/11/27 02:56:07;;;;;;;14.90;7.25;;;;;;;-0.71;100.00;98347.63;5028719;28;20050;-59
2022/11/27 02:58:36;;;;;;;12.48;6.68;;;;;;;-0.82;100.00;98347.88;5028490;28;20532;-60
2022/11/27 03:01:06;;;;;;;11.75;6.63;;;;;;;-0.87;100.00;98350.16;5026060;28;20073;-60
2022/11/27 03:03:36;;;;;;;13.95;7.05;;;;;;;-0.72;100.00;98347.78;5030003;28;20042;-60
2022/11/27 03:06:09;;;;;;;10.50;5.90;;;;;;;-0.58;100.00;98349.91;5028692;28;20204;-60
2022/11/27 03:08:53;;;;;;;12.45;6.57;;;;;;;-0.54;100.00;98343.28;5032935;28;20272;-60
2022/11/27 03:11:21;;;;;;;11.20;6.57;;;;;;;-0.67;100.00;98348.16;5033842;28;20722;-60
2022/11/27 03:13:50;;;;;;;11.98;6.38;;;;;;;-0.75;100.00;98343.63;5048173;28;20120;-60
2022/11/27 03:16:46;;;;;;;12.45;6.25;;;;;;;-0.70;100.00;98322.69;5046304;28;20693;-60
2022/11/27 03:19:19;;;;;;;9.90;5.85;;;;;;;-0.80;100.00;98312.16;5031794;28;20128;-59
2022/11/27 03:21:52;;;;;;;12.05;6.43;;;;;;;-0.74;100.00;98317.88;5032847;28;20068;-60
2022/11/27 03:24:18;;;;;;;10.73;6.25;;;;;;;-0.76;100.00;98311.84;5030082;28;20044;-62
2022/11/27 03:26:45;;;;;;;10.13;6.30;;;;;;;-0.75;100.00;98310.84;5028079;28;20042;-60
2022/11/27 03:29:18;;;;;;;10.65;6.07;;;;;;;-0.91;100.00;98315.09;5032368;28;20040;-61
2022/11/27 03:31:45;;;;;;;12.55;6.57;;;;;;;-0.82;100.00;98307.97;5039956;28;20135;-60
2022/11/27 03:34:12;;;;;;;12.23;5.57;;;;;;;-1.14;100.00;98302.25;5046642;28;20112;-60
2022/11/27 03:36:39;;;;;;;10.52;5.57;;;;;;;-1.32;100.00;98304.94;5038538;28;20045;-60
2022/11/27 03:39:05;;;;;;;11.73;6.03;;;;;;;-1.32;100.00;98312.94;5030823;28;20044;-60
2022/11/27 03:41:44;;;;;;;11.25;5.57;;;;;;;-1.09;100.00;98323.06;5047341;28;20124;-60
2022/11/27 03:44:29;;;;;;;15.25;7.20;;;;;;;-1.29;100.00;98323.22;5027895;28;20124;-60
2022/11/27 03:47:14;;;;;;;11.93;6.10;;;;;;;-1.00;100.00;98324.81;5030817;28;20041;-60
2022/11/27 03:50:18;;;;;;;10.88;6.35;;;;;;;-1.25;100.00;98321.13;5036813;28;20049;-60
2022/11/27 03:52:56;;;;;;;10.05;5.63;;;;;;;-1.25;100.00;98311.31;5027162;28;20069;-60
2022/11/27 03:55:34;;;;;;;10.63;5.22;;;;;;;-1.23;100.00;98314.66;5026047;28;20724;-60
2022/11/27 03:58:36;;;;;;;10.82;5.47;;;;;;;-1.39;100.00;98306.53;5026817;28;20080;-60
2022/11/27 04:01:07;;;;;;;11.05;5.55;;;;;;;-1.32;100.00;98308.44;5023478;28;20114;-60
2022/11/27 04:03:34;;;;;;;10.35;5.60;;;;;;;-1.15;100.00;98316.53;5039795;28;20120;-60
2022/11/27 04:06:01;;;;;;;9.23;5.40;;;;;;;-1.14;100.00;98312.88;5043385;28;20479;-59
2022/11/27 04:08:28;;;;;;;11.40;5.93;;;;;;;-1.29;100.00;98312.59;5036935;28;20047;-61
2022/11/27 04:10:54;;;;;;;11.98;5.30;;;;;;;-1.18;100.00;98301.75;5046726;28;20335;-60
2022/11/27 04:13:21;;;;;;;9.00;5.13;;;;;;;-1.03;100.00;98311.00;5036504;28;20137;-60
2022/11/27 04:15:47;;;;;;;10.27;5.55;;;;;;;-0.93;100.00;98309.06;5027514;28;20069;-60
2022/11/27 04:18:14;;;;;;;11.23;4.78;;;;;;;-1.07;100.00;98305.97;5036760;28;20699;-61
2022/11/27 04:20:41;;;;;;;11.00;4.82;;;;;;;-1.08;100.00;98296.34;5028770;28;20049;-60
2022/11/27 04:23:07;;;;;;;8.40;5.18;;;;;;;-1.05;100.00;98293.38;5034662;28;20041;-60
2022/11/27 04:25:34;;;;;;;11.70;5.22;;;;;;;-0.97;100.00;98283.78;5027549;28;20513;-61
2022/11/27 04:28:00;;;;;;;9.07;4.63;;;;;;;-1.07;100.00;98294.53;5035875;28;20037;-61
2022/11/27 04:30:27;;;;;;;9.77;5.07;;;;;;;-0.98;100.00;98290.09;5043337;28;20055;-60
2022/11/27 04:32:53;;;;;;;9.63;4.97;;;;;;;-0.99;100.00;98283.13;5046245;28;20037;-61
2022/11/27 04:35:20;;;;;;;9.63;4.88;;;;;;;-1.02;100.00;98278.09;5046941;28;20080;-61
2022/11/27 04:37:46;;;;;;;11.70;5.35;;;;;;;-1.00;100.00;98279.59;5030608;28;20528;-60
2022/11/27 04:40:13;;;;;;;7.97;4.45;;;;;;;-1.24;100.00;98273.13;5045024;28;20159;-61
2022/11/27 04:42:39;;;;;;;8.95;4.53;;;;;;;-1.47;100.00;98270.13;5045593;28;20045;-61
2022/11/27 04:45:07;;;;;;;8.25;4.55;;;;;;;-1.56;100.00;98261.22;5027370;28;20099;-61
2022/11/27 04:47:34;;;;;;;8.07;5.47;;;;;;;-1.20;100.00;98265.69;5027047;28;20069;-60
2022/11/27 04:50:01;;;;;;;9.75;4.93;;;;;;;-1.37;100.00;98260.22;5034680;28;20077;-61
2022/11/27 04:52:27;;;;;;;9.68;4.93;;;;;;;-1.56;100.00;98247.94;5026256;28;20404;-59
2022/11/27 04:54:54;;;;;;;12.15;4.80;;;;;;;-1.63;100.00;98253.03;5027055;28;20588;-60
2022/11/27 04:57:25;;;;;;;;;;;;;;;-1.77;100.00;98261.53;5027604;28;20051;-60
2022/11/27 04:59:52;;;;;;;8.50;4.43;;;;;;;-2.01;100.00;98266.44;5027762;28;20447;-60
2022/11/27 05:02:18;;;;;;;10.13;5.65;;;;;;;-2.00;100.00;98272.56;5026658;28;20041;-60
2022/11/27 05:04:45;;;;;;;12.35;5.90;;;;;;;-2.11;100.00;98278.91;5041586;28;20076;-59
2022/11/27 05:07:11;;;;;;;9.77;5.40;;;;;;;-2.17;100.00;98277.72;5032585;28;20054;-60
2022/11/27 05:09:38;;;;;;;10.82;6.10;;;;;;;-2.20;100.00;98280.66;5052288;28;20466;-59
2022/11/27 05:12:04;;;;;;;11.00;6.00;;;;;;;-2.19;100.00;98262.88;5065787;28;20052;-60
2022/11/27 05:14:31;;;;;;;13.57;6.18;;;;;;;-2.17;100.00;98280.34;5038230;28;20045;-61
2022/11/27 05:16:58;;;;;;;11.65;5.25;;;;;;;-2.08;100.00;98278.63;5031810;28;20044;-60
2022/11/27 05:19:27;;;;;;;12.32;6.45;;;;;;;-1.73;100.00;98279.66;5046576;28;20052;-59
2022/11/27 05:21:54;;;;;;;12.05;5.85;;;;;;;-1.60;100.00;98281.09;5045739;28;20123;-59
2022/11/27 05:24:24;;;;;;;15.07;5.90;;;;;;;-1.47;100.00;98286.88;5036629;28;20459;-60
2022/11/27 05:26:51;;;;;;;11.80;6.93;;;;;;;-1.36;100.00;98277.84;5043136;28;20067;-60
2022/11/27 05:29:18;;;;;;;11.27;5.88;;;;;;;-1.35;100.00;98273.38;5046062;28;20045;-59
2022/11/27 05:31:45;;;;;;;14.15;5.78;;;;;;;-1.32;100.00;98273.88;5044679;28;20102;-60
2022/11/27 05:34:12;;;;;;;17.75;7.68;;;;;;;-1.27;100.00;98267.28;5045329;28;20040;-60
2022/11/27 05:36:39;;;;;;;17.45;6.22;;;;;;;-1.19;100.00;98264.69;5044879;28;20114;-60
2022/11/27 05:39:07;;;;;;;10.00;5.25;;;;;;;-1.27;100.00;98264.63;5032281;28;20069;-59
2022/11/27 05:41:35;;;;;;;13.13;7.22;;;;;;;-1.25;100.00;98254.69;5032696;28;20538;-60
2022/11/27 05:44:03;;;;;;;8.98;5.15;;;;;;;-1.23;100.00;98258.00;5036535;28;20034;-60
2022/11/27 05:46:30;;;;;;;11.63;5.38;;;;;;;-1.40;100.00;98249.91;5029747;28;20631;-61
2022/11/27 05:48:57;;;;;;;13.15;5.70;;;;;;;-1.32;100.00;98247.31;5039257;28;20119;-60
2022/11/27 05:51:24;;;;;;;11.82;5.40;;;;;;;-1.34;100.00;98253.78;5027671;28;20046;-59
2022/11/27 05:53:50;;;;;;;8.27;4.68;;;;;;;-1.48;100.00;98253.31;5033202;28;20116;-60
2022/11/27 05:56:18;;;;;;;10.60;5.40;;;;;;;-1.62;100.00;98256.53;5045897;28;20110;-60
2022/11/27 05:58:46;;;;;;;7.75;4.85;;;;;;;-1.81;100.00;98250.38;5035285;28;20044;-60
2022/11/27 06:01:15;;;;;;;9.93;4.70;;;;;;;-1.88;100.00;98244.00;5025283;28;20042;-59
2022/11/27 06:03:41;;;;;;;10.07;4.50;;;;;;;-1.91;100.00;98246.94;5034880;28;20044;-60
2022/11/27 06:06:12;;;;;;;9.18;4.47;;;;;;;-1.65;100.00;98240.91;5039767;28;20069;-60
2022/11/27 06:08:39;;;;;;;10.10;4.13;;;;;;;-1.75;100.00;98236.50;5037555;28;20124;-59
2022/11/27 06:11:15;;;;;;;9.38;4.75;;;;;;;-1.87;100.00;98249.16;5065397;28;20044;-58
2022/11/27 06:13:42;;;;;;;9.35;4.15;;;;;;;-1.96;100.00;98250.88;5055289;28;20677;-59
2022/11/27 06:16:15;;;;;;;10.60;4.53;;;;;;;-2.04;100.00;98242.84;5030766;28;20049;-60
2022/11/27 06:18:43;;;;;;;11.40;4.43;;;;;;;-2.05;100.00;98254.44;5035257;28;20185;-60
2022/11/27 06:21:13;;;;;;;7.90;3.90;;;;;;;-2.13;100.00;98254.34;5045287;28;20271;-61
2022/11/27 06:23:41;;;;;;;7.80;3.78;;;;;;;-2.32;100.00;98242.03;5036771;28;20033;-60
2022/11/27 06:26:12;;;;;;;9.35;4.47;;;;;;;-2.37;100.00;98243.31;5025404;28;20348;-60
2022/11/27 06:28:39;;;;;;;11.13;4.00;;;;;;;-2.33;100.00;98253.63;5034417;28;20599;-60
2022/11/27 06:31:18;;;;;;;8.55;4.47;;;;;;;-2.32;100.00;98256.09;5041174;28;20064;-60
2022/11/27 06:33:46;;;;;;;8.48;4.18;;;;;;;-2.14;100.00;98255.34;5039026;28;20400;-60
2022/11/27 06:36:13;;;;;;;9.23;4.47;;;;;;;-1.94;100.00;98263.16;5040990;28;20508;-60
2022/11/27 06:38:40;;;;;;;9.88;4.65;;;;;;;-1.66;100.00;98271.09;5038427;28;20053;-60
2022/11/27 06:41:10;;;;;;;11.05;5.25;;;;;;;-1.59;100.00;98257.06;5028545;28;20045;-60
2022/11/27 06:43:37;;;;;;;9.13;4.82;;;;;;;-1.46;100.00;98259.34;5037946;28;20041;-59
2022/11/27 06:46:05;;;;;;;11.80;4.70;;;;;;;-1.38;100.00;98253.25;5031886;28;20071;-60
2022/11/27 06:48:33;;;;;;;9.30;5.00;;;;;;;-1.39;100.00;98248.94;5035729;28;20525;-60
2022/11/27 06:51:05;;;;;;;11.93;5.15;;;;;;;-1.43;100.00;98228.97;5033672;28;20048;-60
2022/11/27 06:53:34;;;;;;;40.85;25.58;;;;;;;-1.36;100.00;98222.03;5034764;28;20099;-59
2022/11/27 06:56:03;;;;;;;61.33;37.22;;;;;;;-1.30;100.00;98215.28;5037226;28;20048;-60
2022/11/27 06:58:30;;;;;;;38.78;23.80;;;;;;;-1.19;100.00;98219.50;5038579;28;20129;-59
2022/11/27 07:01:02;;;;;;;20.48;10.98;;;;;;;-1.05;100.00;98220.75;5036222;28;20042;-58
2022/11/27 07:03:29;;;;;;;23.13;14.65;;;;;;;-1.12;100.00;98217.06;5057803;28;20041;-60
2022/11/27 07:05:59;;;;;;;28.67;17.17;;;;;;;-1.15;100.00;98212.06;5041222;28;20073;-59
2022/11/27 07:08:27;;;;;;;25.88;15.55;;;;;;;-1.02;100.00;98209.81;5046154;28;20492;-60
2022/11/27 07:10:53;;;;;;;24.88;15.15;;;;;;;-0.98;100.00;98216.50;5061315;28;20058;-60
2022/11/27 07:13:20;;;;;;;31.48;18.17;;;;;;;-1.05;100.00;98210.97;5046143;28;20044;-60
2022/11/27 07:15:46;;;;;;;19.48;10.98;;;;;;;-1.40;100.00;98210.03;5045456;28;20166;-60
2022/11/27 07:18:13;;;;;;;17.27;10.02;;;;;;;-1.23;100.00;98210.16;5045466;28;20067;-60
2022/11/27 07:20:39;;;;;;;17.65;11.25;;;;;;;-1.09;100.00;98198.16;5045236;28;20049;-61
2022/11/27 07:23:06;;;;;;;24.98;14.65;;;;;;;-0.85;100.00;98207.28;5044810;28;20496;-61
2022/11/27 07:25:32;;;;;;;25.67;15.57;;;;;;;-0.82;100.00;98198.94;5046208;28;20463;-59
2022/11/27 07:27:59;;;;;;;18.05;11.40;;;;;;;-0.87;100.00;98191.47;5045531;28;20072;-62
2022/11/27 07:30:25;;;;;;;25.60;14.20;;;;;;;-0.85;100.00;98189.47;5046574;28;20090;-60
2022/11/27 07:32:52;;;;;;;23.15;14.43;;;;;;;-0.78;100.00;98184.34;5044615;28;20049;-60
2022/11/27 07:35:18;;;;;;;20.27;12.43;;;;;;;-0.73;100.00;98176.75;5034398;28;20037;-60
2022/11/27 07:37:45;;;;;;;23.02;13.13;;;;;;;-0.70;100.00;98173.75;5040722;28;20617;-59
2022/11/27 07:40:12;;;;;;;29.17;16.77;;;;;;;-0.56;100.00;98169.66;5043017;28;20045;-60
2022/11/27 07:42:40;;;;;;;26.58;16.23;;;;;;;-0.44;100.00;98172.03;5048695;28;20033;-60
2022/11/27 07:45:08;;;;;;;19.25;12.35;;;;;;;-0.48;100.00;98160.88;5042000;28;20536;-60
2022/11/27 07:47:35;;;;;;;19.40;11.85;;;;;;;-0.58;100.00;98162.84;5043393;28;20049;-60
2022/11/27 07:50:02;;;;;;;23.40;13.88;;;;;;;-0.55;100.00;98179.28;5034490;28;20068;-60
2022/11/27 07:52:29;;;;;;;20.27;13.23;;;;;;;-0.56;100.00;98168.81;5034699;28;20052;-60
2022/11/27 07:54:56;;;;;;;22.08;11.52;;;;;;;-0.59;100.00;98177.94;5041412;28;20041;-59
2022/11/27 07:57:22;;;;;;;24.17;12.60;;;;;;;-0.53;100.00;98176.47;5036637;28;20037;-60
2022/11/27 07:59:49;;;;;;;20.63;13.27;;;;;;;-0.40;100.00;98179.53;5042689;28;20045;-58
2022/11/27 08:02:15;;;;;;;20.65;14.82;;;;;;;-0.41;100.00;98180.53;5044598;28;20037;-59
2022/11/27 08:04:42;;;;;;;19.27;14.05;;;;;;;-0.23;100.00;98168.09;5044568;28;20055;-60
2022/11/27 08:07:09;;;;;;;21.58;14.48;;;;;;;-0.14;100.00;98170.59;5040587;28;20846;-58
2022/11/27 08:09:36;;;;;;;20.05;13.88;;;;;;;0.00;100.00;98165.66;5045315;28;20045;-59
2022/11/27 08:12:03;;;;;;;15.90;10.60;;;;;;;0.19;100.00;98169.00;5044737;28;20566;-59
2022/11/27 08:14:30;;;;;;;19.90;11.48;;;;;;;0.02;100.00;98168.97;5043927;28;20852;-60
2022/11/27 08:16:57;;;;;;;19.92;11.25;;;;;;;0.14;100.00;98166.00;5045120;28;20048;-60
2022/11/27 08:19:24;;;;;;;16.45;11.23;;;;;;;0.29;100.00;98164.31;5041522;28;20527;-59
2022/11/27 08:21:50;;;;;;;18.33;8.75;;;;;;;0.50;100.00;98158.50;5044613;28;20048;-59
2022/11/27 08:24:17;;;;;;;10.48;6.95;;;;;;;0.66;100.00;98158.66;5054218;28;20067;-59
2022/11/27 08:26:43;;;;;;;9.82;6.90;;;;;;;0.83;100.00;98159.47;5044621;28;20527;-59
2022/11/27 08:29:11;;;;;;;8.85;5.30;;;;;;;0.99;100.00;98158.59;5054844;28;20459;-61
2022/11/27 08:31:37;;;;;;;10.05;5.03;;;;;;;1.19;100.00;98159.03;5046547;28;20616;-59
2022/11/27 08:34:04;;;;;;;11.55;5.72;;;;;;;1.28;100.00;98158.00;5042898;28;20049;-60
2022/11/27 08:36:31;;;;;;;8.15;4.15;;;;;;;1.41;100.00;98152.09;5041726;28;20037;-61
2022/11/27 08:38:57;;;;;;;8.88;4.32;;;;;;;1.42;100.00;98151.13;5040105;28;20164;-60
2022/11/27 08:41:24;;;;;;;8.80;3.90;;;;;;;1.51;100.00;98146.56;5042563;28;20051;-57
2022/11/27 08:43:50;;;;;;;6.95;4.05;;;;;;;1.54;100.00;98127.53;5043794;28;20489;-60
2022/11/27 08:46:17;;;;;;;9.98;3.38;;;;;;;1.68;100.00;98122.44;5044203;28;20111;-60
2022/11/27 08:48:44;;;;;;;6.82;3.25;;;;;;;1.75;100.00;98112.72;5042486;28;20052;-59
2022/11/27 08:51:13;;;;;;;9.43;3.92;;;;;;;1.88;100.00;98119.34;5038582;28;20049;-60
2022/11/27 08:53:40;;;;;;;7.80;3.45;;;;;;;2.04;100.00;98118.38;5044216;28;20053;-59
2022/11/27 08:56:18;;;;;;;8.55;3.63;;;;;;;2.17;100.00;98110.59;5044120;28;20052;-60
2022/11/27 08:58:45;;;;;;;12.25;4.15;;;;;;;2.23;100.00;98109.03;5030224;28;20044;-59
2022/11/27 09:01:21;;;;;;;6.78;3.28;;;;;;;2.31;100.00;98103.63;5043441;28;20067;-60
2022/11/27 09:03:48;;;;;;;6.68;3.33;;;;;;;2.37;100.00;98110.09;5043742;28;20060;-60
2022/11/27 09:06:20;;;;;;;5.47;2.88;;;;;;;2.45;100.00;98106.50;5039018;28;20576;-61
2022/11/27 09:08:48;;;;;;;6.22;3.10;;;;;;;2.42;100.00;98106.88;5045400;28;20121;-59
2022/11/27 09:11:17;;;;;;;7.85;3.35;;;;;;;2.44;100.00;98103.00;5043700;28;20528;-60
2022/11/27 09:13:44;;;;;;;7.10;3.55;;;;;;;2.49;100.00;98110.50;5042982;28;20502;-58
2022/11/27 09:16:15;;;;;;;8.45;3.35;;;;;;;2.57;100.00;98101.56;5032482;28;20151;-60
2022/11/27 09:18:47;;;;;;;10.30;3.90;;;;;;;2.66;100.00;98089.78;5043718;28;20052;-60
2022/11/27 09:21:15;;;;;;;6.88;4.22;;;;;;;2.77;100.00;98093.00;5042763;28;20051;-59
2022/11/27 09:23:42;;;;;;;8.05;4.75;;;;;;;2.84;100.00;98091.25;5046308;28;20721;-60
2022/11/27 09:26:12;;;;;;;17.58;6.85;;;;;;;2.90;100.00;98089.69;5026728;28;20049;-60
2022/11/27 09:28:39;;;;;;;17.73;8.38;;;;;;;2.98;100.00;98092.25;5032898;28;20073;-60
2022/11/27 09:31:08;;;;;;;10.80;5.63;;;;;;;3.01;100.00;98083.88;5027664;28;20099;-60
2022/11/27 09:33:37;;;;;;;6.15;2.80;;;;;;;3.09;100.00;98099.00;5026772;28;20517;-60
2022/11/27 09:36:24;;;;;;;6.38;2.95;;;;;;;3.18;100.00;98091.69;5024595;28;20125;-60
2022/11/27 09:38:52;;;;;;;5.43;2.80;;;;;;;3.12;100.00;98086.09;5030899;28;20045;-61
2022/11/27 09:41:43;;;;;;;7.70;3.38;;;;;;;3.10;100.00;98092.63;5044990;28;20052;-61
2022/11/27 09:44:38;;;;;;;5.80;2.70;;;;;;;3.16;100.00;98080.38;5043968;28;20576;-59
2022/11/27 09:47:13;;;;;;;8.00;3.15;;;;;;;3.28;100.00;98078.03;5031522;28;20366;-59
2022/11/27 09:49:46;;;;;;;6.20;3.60;;;;;;;3.33;100.00;98071.09;5034786;28;20116;-60
2022/11/27 09:52:21;;;;;;;7.43;3.33;;;;;;;3.42;100.00;98071.00;5042603;28;20068;-60
2022/11/27 09:55:08;;;;;;;7.80;3.50;;;;;;;3.49;100.00;98077.25;5053613;28;20749;-60
2022/11/27 09:57:37;;;;;;;5.82;2.80;;;;;;;3.57;100.00;98065.59;5034461;28;20053;-59
2022/11/27 10:00:16;;;;;;;4.72;2.50;;;;;;;3.60;99.92;98060.69;5040906;28;20103;-57
2022/11/27 10:02:43;;;;;;;5.88;2.55;;;;;;;3.70;98.46;98060.38;5042111;28;20535;-59
2022/11/27 10:05:22;;;;;;;6.20;2.67;;;;;;;3.80;99.31;98057.41;5043922;28;20440;-60
2022/11/27 10:08:12;;;;;;;3.85;2.17;;;;;;;3.83;98.40;98058.84;5041387;28;20047;-60
2022/11/27 10:11:10;;;;;;;3.53;1.92;;;;;;;3.91;97.44;98056.06;5046916;28;20041;-59
2022/11/27 10:14:18;;;;;;;5.85;2.20;;;;;;;4.11;95.43;98045.50;5013083;28;20141;-60
2022/11/27 10:17:04;;;;;;;3.30;1.77;;;;;;;4.33;94.36;98031.22;5008993;28;20058;-59
2022/11/27 10:19:57;;;;;;;3.20;2.00;;;;;;;4.54;91.92;98036.53;5040002;28;20068;-60
2022/11/27 10:22:38;;;;;;;5.95;2.00;;;;;;;4.62;90.98;98030.19;5044191;28;20045;-60
2022/11/27 10:25:07;;;;;;;5.20;1.60;;;;;;;4.72;89.50;98027.13;5046195;28;20099;-59
2022/11/27 10:27:43;;;;;;;3.38;1.73;;;;;;;4.77;86.09;98032.75;5037332;28;20379;-61
2022/11/27 10:30:19;;;;;;;4.65;1.80;;;;;;;4.84;84.38;98021.22;5032146;28;20040;-60
2022/11/27 10:32:49;;;;;;;3.72;1.60;;;;;;;4.90;83.73;98020.44;5042445;28;20080;-60
2022/11/27 10:35:24;;;;;;;4.55;2.05;;;;;;;4.85;85.91;98018.34;5051451;28;20053;-60
2022/11/27 10:37:59;;;;;;;2.85;1.60;;;;;;;4.83;84.54;98020.38;5034072;28;20041;-60
2022/11/27 10:40:57;;;;;;;5.55;1.70;;;;;;;4.92;85.23;98021.88;5046721;28;20049;-59
2022/11/27 10:43:24;;;;;;;3.20;1.67;;;;;;;5.12;84.96;98012.25;5052272;28;20068;-60
2022/11/27 10:46:20;;;;;;;3.65;1.52;;;;;;;5.28;84.66;98019.13;5035595;28;20045;-57
2022/11/27 10:48:47;;;;;;;6.22;1.80;;;;;;;5.45;85.40;98015.03;5044742;28;20103;-60
2022/11/27 10:51:21;;;;;;;4.57;1.70;;;;;;;5.59;84.12;98009.69;5045034;28;20110;-55
2022/11/27 10:53:52;;;;;;;4.20;1.98;;;;;;;5.70;83.06;98006.41;5045542;28;20049;-63
2022/11/27 10:56:43;;;;;;;4.35;2.20;;;;;;;5.67;83.39;97995.22;5053965;28;20041;-60
2022/11/27 10:59:25;;;;;;;5.55;2.05;;;;;;;5.68;81.56;97992.34;5037326;28;20566;-62
2022/11/27 11:01:59;;;;;;;7.47;2.42;;;;;;;5.77;82.54;97976.88;5034070;28;20136;-62
2022/11/27 11:04:29;;;;;;;4.47;1.73;;;;;;;5.84;81.28;97963.44;5058902;28;20052;-61
2022/11/27 11:07:27;;;;;;;4.25;1.67;;;;;;;5.86;81.06;97961.34;5035235;28;20145;-61
2022/11/27 11:09:55;;;;;;;3.70;1.55;;;;;;;5.94;81.47;97950.38;5054230;28;20052;-61
2022/11/27 11:12:22;;;;;;;2.72;1.23;;;;;;;6.05;80.61;97942.78;5045484;28;20059;-61
2022/11/27 11:14:57;;;;;;;2.95;1.50;;;;;;;6.09;80.95;97936.75;5035463;28;20124;-63
2022/11/27 11:17:33;;;;;;;3.92;1.65;;;;;;;6.17;80.23;97930.34;5052649;28;20152;-63
2022/11/27 11:20:00;;;;;;;2.50;1.33;;;;;;;6.23;80.80;97926.00;5042951;28;20075;-60
2022/11/27 11:22:27;;;;;;;4.18;1.90;;;;;;;6.24;82.03;97919.59;5043977;28;21004;-61
2022/11/27 11:24:54;;;;;;;4.65;1.92;;;;;;;6.27;82.12;97913.78;5045832;28;20051;-61
2022/11/27 11:27:31;;;;;;;2.95;1.42;;;;;;;6.29;81.45;97905.50;5045240;28;20068;-60
2022/11/27 11:30:00;;;;;;;3.20;1.63;;;;;;;6.24;81.39;97900.75;5050055;28;20044;-61
2022/11/27 11:32:37;;;;;;;4.70;2.42;;;;;;;6.23;84.20;97899.13;5054491;28;20084;-60
2022/11/27 11:35:29;;;;;;;4.47;2.05;;;;;;;6.20;82.15;97891.47;5044666;28;20122;-58
2022/11/27 11:37:56;;;;;;;4.43;1.70;;;;;;;6.13;81.51;97891.47;5036248;28;20045;-64
2022/11/27 11:40:29;;;;;;;3.40;1.70;;;;;;;5.96;83.11;97886.50;5044539;28;20053;-63
2022/11/27 11:42:59;;;;;;;4.65;1.98;;;;;;;6.06;84.22;97891.50;5054756;28;20041;-63